Main page
METAR-TAF:

METAR-TAF

Airports :

Yamoussoukro Airport

Yamoussoukro, Ivory coast

latitude: 06-54N, longitude: 005-21W, elevation: 196 m

Current weather observation

The report was made 53 minutes ago, at 22:00 UTC
Wind 2 kt from the Northwest
Temperature 25°C
Humidity 94%
Pressure 1012 hPa
Visibility 10 km or more
Scattered clouds at a height of 1000 ft

METAR: DIYO 192200Z 32002KT 9999 SCT010 25/24 Q1012 NOSIG

Time: 22:53 (22:53 UTC)

Forecast

The report was made 5 hours and 53 minutes ago, at 17:00 UTC
Forecast valid from 19 at 18 UTC to 20 at 18 UTC
Wind 8 kt from the West/Southwest
Visibility: 8000 m
Scattered clouds at a height of 1300 ft
Probability 30% :
Temporary
from 19 at 18 UTC to 19 at 22 UTC
Broken clouds at a height of 1200 ft
Few clouds at a height of 2300 ft, Cumulonimbus.
thunderstorm
Probability 40% :
Temporary
from 20 at 11 UTC to 20 at 17 UTC
Broken clouds at a height of 1300 ft

TAF: DIYO 191700Z 1918/2018 24008KT 8000 SCT013 PROB30 TEMPO 1918/1922 TS BKN012 FEW023CB PROB40 TEMPO 2011/2017 BKN013

Weather observations and forecasts of more than 4000 airports (METAR and TAF reports).

The available stations are represented by yellow and red dots on the map.

Hover mouse over dot to see the name of the station.

Then click to see weather observations and forecasts.

To change the map : click on the green buttons with a black cross to zoom in, on the green button with a dash to zoom out, or on the green arrows for adjacent maps.


METAR-TAF: